Time;durP1;ratioP1;P1;durP2;ratioP2;P2;SDS_P1;SDS_P2;PMS_P1;PMS_P2;Temp;Humidity;BMP_temperature;BMP_pressure;BME280_temperature;BME280_humidity;BME280_pressure;Samples;Min_cycle;Max_cycle;Signal;HPM_P1;HPM_P2
2023/10/20 00:03:04;;;;;;;22.95;4.13;;;;;;;2.83;100.00;100613.41;10418574;28;20053;-79
2023/10/20 00:08:05;;;;;;;18.42;4.20;;;;;;;4.00;100.00;100794.75;10417424;28;20053;-77
2023/10/20 00:13:06;;;;;;;14.07;3.45;;;;;;;3.66;100.00;100749.97;10417394;28;20037;-78
2023/10/20 00:18:07;;;;;;;22.33;4.47;;;;;;;3.15;100.00;100661.75;10417582;28;20522;-81
2023/10/20 00:23:07;;;;;;;95.13;5.80;;;;;;;3.94;100.00;100790.78;10417239;28;20049;-81
2023/10/20 00:28:11;;;;;;;314.83;9.02;;;;;;;3.79;100.00;100757.75;10417971;28;20102;-81
2023/10/20 00:33:12;;;;;;;27.40;5.65;;;;;;;3.91;100.00;100767.34;10417548;28;20477;-82
2023/10/20 00:38:13;;;;;;;48.20;4.28;;;;;;;3.92;100.00;100790.09;10416727;28;20041;-78
2023/10/20 00:43:14;;;;;;;235.65;7.18;;;;;;;3.65;100.00;100749.13;10415834;28;20041;-79
2023/10/20 00:48:15;;;;;;;67.18;5.50;;;;;;;3.77;100.00;100768.41;10416462;28;20048;-78
2023/10/20 00:53:17;;;;;;;98.15;6.65;;;;;;;3.16;100.00;100691.47;10415422;28;20041;-79
2023/10/20 00:58:18;;;;;;;118.55;7.07;;;;;;;3.19;100.00;100710.47;10415708;28;20041;-80
2023/10/20 01:03:19;;;;;;;171.60;6.88;;;;;;;3.30;100.00;100733.31;10415425;28;20493;-80
2023/10/20 01:08:20;;;;;;;77.97;6.38;;;;;;;3.30;100.00;100719.38;10396334;28;20410;-83
2023/10/20 01:13:24;;;;;;;56.45;4.32;;;;;;;3.56;100.00;100739.31;10404715;28;20053;-81
2023/10/20 01:18:24;;;;;;;26.90;3.50;;;;;;;3.13;100.00;100675.94;10416272;28;20046;-81
2023/10/20 01:23:25;;;;;;;53.55;3.95;;;;;;;3.95;100.00;100805.63;10413477;28;20049;-79
2023/10/20 01:28:26;;;;;;;27.23;3.08;;;;;;;3.80;100.00;100777.81;10415235;28;20563;-79
2023/10/20 01:33:26;;;;;;;24.02;3.58;;;;;;;3.42;100.00;100721.91;10415484;28;20401;-79
2023/10/20 01:38:27;;;;;;;19.88;2.22;;;;;;;3.72;100.00;100782.84;10414649;28;20037;-78
2023/10/20 01:43:28;;;;;;;34.72;2.80;;;;;;;3.02;100.00;100645.25;10396622;28;20099;-78
2023/10/20 01:48:30;;;;;;;54.75;3.85;;;;;;;3.66;100.00;100758.69;10396408;28;20083;-79
2023/10/20 01:53:31;;;;;;;71.55;3.90;;;;;;;3.84;100.00;100776.66;10413718;28;20509;-80
2023/10/20 01:58:32;;;;;;;142.93;4.47;;;;;;;3.65;100.00;100722.03;10395522;28;20128;-78
2023/10/20 02:03:32;;;;;;;189.40;5.38;;;;;;;4.24;100.00;100790.28;10413012;28;20038;-78
2023/10/20 02:08:34;;;;;;;78.03;4.22;;;;;;;4.17;100.00;100790.88;10379760;28;20058;-79
2023/10/20 02:13:36;;;;;;;98.10;4.10;;;;;;;4.20;100.00;100795.91;10372207;28;20065;-80
2023/10/20 02:18:38;;;;;;;183.27;5.47;;;;;;;3.93;100.00;100762.84;10373115;28;20057;-78
2023/10/20 02:23:39;;;;;;;165.80;8.35;;;;;;;4.11;100.00;100800.06;10382054;28;20041;-77
2023/10/20 02:28:39;;;;;;;227.95;6.38;;;;;;;3.89;100.00;100777.16;10412162;28;20048;-77
2023/10/20 02:33:40;;;;;;;132.95;4.65;;;;;;;3.99;100.00;100795.72;10396995;28;20053;-78
2023/10/20 02:38:41;;;;;;;123.15;4.57;;;;;;;3.74;100.00;100784.41;10420128;28;20083;-77
2023/10/20 02:43:42;;;;;;;169.27;5.35;;;;;;;3.28;100.00;100701.06;10420979;28;20041;-78
2023/10/20 02:48:43;;;;;;;368.77;9.57;;;;;;;3.66;100.00;100779.69;10420427;28;20110;-78
2023/10/20 02:53:44;;;;;;;152.68;7.50;;;;;;;3.39;100.00;100732.66;10421255;28;20037;-78
2023/10/20 02:58:45;;;;;;;296.60;8.70;;;;;;;3.69;100.00;100765.50;10402967;28;20037;-77
2023/10/20 03:03:46;;;;;;;69.72;4.82;;;;;;;3.52;100.00;100710.72;10420764;28;20037;-79
2023/10/20 03:08:47;;;;;;;47.78;4.70;;;;;;;4.05;100.00;100780.31;10419175;28;20505;-78
2023/10/20 03:13:47;;;;;;;76.55;4.75;;;;;;;3.82;100.00;100753.13;10420547;28;20045;-79
2023/10/20 03:18:48;;;;;;;112.78;6.20;;;;;;;4.30;100.00;100799.50;10417623;28;20045;-80
2023/10/20 03:23:49;;;;;;;118.13;5.32;;;;;;;4.17;100.00;100778.56;10400108;28;20041;-81
2023/10/20 03:28:50;;;;;;;156.75;6.68;;;;;;;3.52;100.00;100682.66;10402029;28;20041;-77
2023/10/20 03:33:51;;;;;;;156.85;6.63;;;;;;;3.75;100.00;100712.50;10387996;28;20045;-84
2023/10/20 03:38:52;;;;;;;135.63;6.88;;;;;;;4.37;100.00;100799.84;10419143;28;20489;-75
2023/10/20 03:43:53;;;;;;;109.53;6.65;;;;;;;4.63;100.00;100829.44;10393510;28;20129;-70
2023/10/20 03:48:54;;;;;;;128.10;5.18;;;;;;;4.41;100.00;100761.84;10397921;28;20076;-81
2023/10/20 03:53:55;;;;;;;142.43;8.15;;;;;;;4.65;100.00;100798.59;10418014;28;20128;-77
2023/10/20 03:58:56;;;;;;;94.00;5.05;;;;;;;4.37;100.00;100740.22;10417181;28;20091;-81
2023/10/20 04:03:57;;;;;;;70.32;4.07;;;;;;;4.91;100.00;100821.09;10418393;28;20095;-76
2023/10/20 04:08:59;;;;;;;106.75;6.03;;;;;;;4.77;100.00;100797.63;10410516;28;20069;-75
2023/10/20 04:14:01;;;;;;;98.95;4.55;;;;;;;4.32;100.00;100722.16;10411341;28;20042;-80
2023/10/20 04:19:01;;;;;;;37.83;3.22;;;;;;;4.35;100.00;100721.09;10417232;28;20046;-83
2023/10/20 04:24:02;;;;;;;22.83;2.33;;;;;;;4.91;100.00;100815.84;10417272;28;20041;-82
2023/10/20 05:02:34;;;;;;;9.68;2.78;;;;;;;6.11;100.00;100861.59;10352636;28;19973;-60
2023/10/20 05:07:35;;;;;;;8.20;3.20;;;;;;;5.98;100.00;100814.28;10374385;28;20050;-60
2023/10/20 05:12:36;;;;;;;13.50;3.05;;;;;;;5.97;100.00;100812.63;10373816;28;20045;-59
2023/10/20 05:17:37;;;;;;;22.13;3.35;;;;;;;6.30;100.00;100855.63;10374240;28;20038;-60
2023/10/20 05:22:37;;;;;;;19.25;4.18;;;;;;;6.55;100.00;100864.97;10374657;28;20145;-60
2023/10/20 05:27:41;;;;;;;67.68;4.38;;;;;;;6.63;100.00;100857.25;10373130;28;20053;-62
2023/10/20 05:32:41;;;;;;;46.25;4.65;;;;;;;6.86;100.00;100857.94;10373585;28;20079;-60
2023/10/20 05:37:42;;;;;;;29.40;3.92;;;;;;;6.62;100.00;100782.50;10373512;28;20041;-60
2023/10/20 05:42:43;;;;;;;29.65;5.10;;;;;;;6.77;100.00;100805.91;10372673;28;20065;-60
2023/10/20 05:47:45;;;;;;;35.70;6.25;;;;;;;7.22;100.00;100840.69;10383564;28;20053;-60
2023/10/20 05:52:45;;;;;;;8.13;5.47;;;;;;;7.54;100.00;100842.34;10429570;28;20057;-60
2023/10/20 05:57:46;;;;;;;7.22;5.57;;;;;;;8.00;100.00;100836.38;10413651;28;20124;-60
2023/10/20 06:02:47;;;;;;;16.65;5.82;;;;;;;7.97;100.00;100793.50;10413554;28;20611;-60
2023/10/20 06:07:49;;;;;;;17.58;5.97;;;;;;;7.89;100.00;100772.19;10413713;28;20129;-60
2023/10/20 06:12:52;;;;;;;22.13;6.03;;;;;;;8.29;100.00;100843.47;10413241;28;20135;-60
2023/10/20 06:17:52;;;;;;;8.30;6.10;;;;;;;8.41;100.00;100828.31;10395371;28;20386;-60
2023/10/20 06:22:53;;;;;;;7.68;5.97;;;;;;;8.43;100.00;100823.69;10413128;28;20067;-60
2023/10/20 06:27:54;;;;;;;11.88;6.65;;;;;;;8.63;100.00;100816.53;10412520;28;20447;-60
2023/10/20 06:38:17;;;;;;;11.23;8.75;;;;;;;9.44;100.00;100811.44;10412199;28;20183;-61
2023/10/20 06:43:19;;;;;;;11.67;9.87;;;;;;;9.89;100.00;100799.94;10412525;28;20045;-59
2023/10/20 06:48:20;;;;;;;14.45;9.50;;;;;;;10.47;99.89;100811.88;10412706;28;20084;-60
2023/10/20 06:53:21;;;;;;;12.25;9.20;;;;;;;10.91;98.91;100788.69;10412652;28;20076;-60
2023/10/20 06:58:22;;;;;;;10.80;9.07;;;;;;;11.69;97.88;100803.56;10412517;28;20076;-59
2023/10/20 07:03:23;;;;;;;14.40;8.70;;;;;;;12.15;95.96;100792.50;10412567;28;20415;-59
2023/10/20 07:08:24;;;;;;;16.73;9.57;;;;;;;12.69;94.22;100801.56;10428301;28;20052;-59
2023/10/20 07:13:26;;;;;;;39.15;23.85;;;;;;;13.18;93.24;100795.22;10412242;28;20432;-59
2023/10/20 07:18:26;;;;;;;122.47;63.53;;;;;;;13.82;92.12;100797.69;10412003;28;20037;-60
2023/10/20 07:23:27;;;;;;;126.50;51.25;;;;;;;14.25;91.09;100790.84;10417997;28;20037;-60
2023/10/20 07:28:28;;;;;;;19.05;11.45;;;;;;;14.65;89.11;100774.63;10418980;28;20045;-59
2023/10/20 07:33:29;;;;;;;20.15;9.52;;;;;;;15.20;87.81;100775.97;10419058;28;20524;-60
2023/10/20 07:38:30;;;;;;;377.30;262.00;;;;;;;15.46;84.87;100770.06;10418810;28;20044;-58
2023/10/20 07:43:31;;;;;;;37.78;25.75;;;;;;;15.64;83.88;100766.94;10418702;28;20048;-60
2023/10/20 07:48:32;;;;;;;14.90;10.90;;;;;;;15.49;82.49;100708.09;10418679;28;20049;-59
2023/10/20 07:53:33;;;;;;;147.82;71.13;;;;;;;16.15;80.09;100756.09;10418459;28;20069;-59
2023/10/20 07:58:34;;;;;;;42.45;22.63;;;;;;;16.26;77.97;100752.88;10418736;28;20501;-59
2023/10/20 08:03:35;;;;;;;13.85;7.30;;;;;;;16.37;76.73;100746.16;10417857;28;20076;-59
2023/10/20 08:08:35;;;;;;;12.13;7.28;;;;;;;16.50;74.86;100742.75;10417600;28;20041;-59
2023/10/20 08:13:39;;;;;;;9.32;5.40;;;;;;;16.55;73.83;100742.97;10417513;28;20095;-59
2023/10/20 08:18:40;;;;;;;8.77;5.63;;;;;;;16.84;73.80;100731.19;10416831;28;20036;-59
2023/10/20 08:23:41;;;;;;;28.17;18.10;;;;;;;16.78;72.33;100714.06;10417185;28;20048;-59
2023/10/20 08:28:42;;;;;;;13.27;7.25;;;;;;;17.08;72.10;100727.13;10417129;28;20041;-59
2023/10/20 08:33:43;;;;;;;8.95;5.97;;;;;;;17.12;71.71;100709.63;10415934;28;20067;-59
2023/10/20 08:38:47;;;;;;;8.55;5.05;;;;;;;17.15;71.23;100697.66;10416724;28;20133;-59
2023/10/20 08:43:48;;;;;;;12.80;8.57;;;;;;;17.22;70.65;100695.81;10415762;28;20067;-59
2023/10/20 08:48:49;;;;;;;12.98;7.60;;;;;;;17.44;70.27;100691.09;10416358;28;20063;-59
2023/10/20 08:53:50;;;;;;;16.33;8.18;;;;;;;17.47;69.86;100682.63;10416356;28;20053;-59
2023/10/20 08:58:51;;;;;;;13.35;6.32;;;;;;;17.60;67.89;100679.13;10415747;28;20487;-59
2023/10/20 09:03:54;;;;;;;8.07;5.45;;;;;;;17.63;67.75;100676.88;10416103;28;20124;-59
2023/10/20 09:08:57;;;;;;;8.90;5.20;;;;;;;17.90;67.04;100666.16;10415969;28;20091;-59
2023/10/20 09:13:59;;;;;;;9.40;4.63;;;;;;;17.87;65.55;100658.50;10415374;28;20409;-60
2023/10/20 09:19:00;;;;;;;14.65;4.60;;;;;;;17.99;65.57;100638.00;10415930;28;20049;-59
2023/10/20 09:24:02;;;;;;;12.40;3.92;;;;;;;18.21;64.51;100652.00;10415908;28;20045;-59
2023/10/20 09:29:07;;;;;;;7.53;4.47;;;;;;;18.21;64.57;100635.88;10414180;28;20044;-59
2023/10/20 09:34:09;;;;;;;11.63;3.70;;;;;;;18.22;63.77;100616.88;10414654;28;20128;-59
2023/10/20 09:39:12;;;;;;;7.57;3.67;;;;;;;18.24;62.71;100611.25;10413983;28;20037;-59
2023/10/20 09:44:21;;;;;;;8.77;3.45;;;;;;;18.22;60.23;100610.66;10413671;28;20045;-59
2023/10/20 09:49:27;;;;;;;5.82;3.72;;;;;;;18.22;60.13;100614.19;10429263;28;20064;-60
2023/10/20 09:54:32;;;;;;;7.03;3.88;;;;;;;18.11;59.58;100549.47;10413877;28;20405;-60
2023/10/20 09:59:37;;;;;;;9.63;3.60;;;;;;;18.54;60.45;100608.03;10413017;28;20448;-60
2023/10/20 10:04:39;;;;;;;9.10;3.67;;;;;;;18.44;59.86;100597.75;10413632;28;20091;-60
2023/10/20 10:09:48;;;;;;;9.98;3.78;;;;;;;18.59;59.75;100594.78;10413199;28;20041;-59
2023/10/20 10:15:13;;;;;;;8.43;3.60;;;;;;;18.77;57.83;100589.53;10413651;28;20559;-59
2023/10/20 10:20:44;;;;;;;6.35;3.20;;;;;;;18.89;54.83;100586.97;10411689;28;20500;-62
2023/10/20 10:25:47;;;;;;;10.27;3.28;;;;;;;18.87;56.09;100579.09;10412475;28;20543;-60
2023/10/20 10:30:51;;;;;;;;;;;;;;;19.03;55.58;100576.97;10413317;28;20038;-60
2023/10/20 10:36:04;;;;;;;5.23;2.40;;;;;;;18.74;55.22;100564.94;10412866;28;20342;-59
2023/10/20 10:41:04;;;;;;;14.73;2.87;;;;;;;18.75;56.05;100566.56;10413149;28;20033;-60
2023/10/20 10:46:06;;;;;;;6.60;2.78;;;;;;;18.93;56.27;100572.88;10427497;28;20178;-59
2023/10/20 10:51:07;;;;;;;7.32;3.15;;;;;;;18.90;55.26;100567.09;10413213;28;20420;-59
2023/10/20 10:56:09;;;;;;;6.68;3.10;;;;;;;18.82;55.06;100568.19;10415615;28;20042;-60
2023/10/20 11:01:10;;;;;;;7.00;3.03;;;;;;;18.34;55.48;100504.06;10420799;28;20080;-60
2023/10/20 11:06:10;;;;;;;12.80;4.20;;;;;;;18.69;54.17;100552.91;10420199;28;20523;-59
2023/10/20 11:11:11;;;;;;;11.45;3.30;;;;;;;18.74;53.75;100562.25;10419557;28;20052;-60
2023/10/20 11:16:14;;;;;;;7.32;3.25;;;;;;;18.78;53.27;100561.56;10419781;28;20041;-59
2023/10/20 11:21:15;;;;;;;7.28;3.50;;;;;;;18.55;54.37;100526.31;10419842;28;20045;-61
2023/10/20 11:26:20;;;;;;;7.05;2.85;;;;;;;18.62;53.74;100552.13;10419550;28;20041;-60
2023/10/20 11:31:21;;;;;;;9.38;3.13;;;;;;;18.54;54.46;100565.00;10419342;28;20409;-59
2023/10/20 11:36:22;;;;;;;5.25;3.17;;;;;;;18.39;54.19;100551.81;10419142;28;20045;-60
2023/10/20 11:41:23;;;;;;;16.23;2.85;;;;;;;18.45;54.30;100569.78;10418819;28;20595;-60
2023/10/20 11:46:24;;;;;;;6.20;2.63;;;;;;;18.47;54.70;100565.03;10418496;28;20037;-60
2023/10/20 11:51:25;;;;;;;6.75;2.35;;;;;;;18.38;54.33;100560.94;10433143;28;20052;-60
2023/10/20 11:56:25;;;;;;;14.35;2.63;;;;;;;18.27;54.40;100543.59;10418873;28;20091;-60
2023/10/20 12:01:27;;;;;;;4.43;2.25;;;;;;;18.01;53.31;100505.06;10418092;28;20051;-60
2023/10/20 12:06:28;;;;;;;10.70;2.78;;;;;;;18.10;52.78;100543.28;10417936;28;20049;-60
2023/10/20 12:11:28;;;;;;;33.97;3.40;;;;;;;18.20;52.99;100548.19;10417758;28;20072;-60
2023/10/20 12:16:30;;;;;;;13.65;3.17;;;;;;;18.03;53.60;100532.53;10417701;28;20047;-60
2023/10/20 12:21:31;;;;;;;8.50;2.78;;;;;;;17.99;53.67;100547.44;10417419;28;20049;-60
2023/10/20 12:26:31;;;;;;;8.93;3.63;;;;;;;17.90;54.66;100546.03;10417453;28;20087;-61
2023/10/20 12:31:32;;;;;;;9.13;3.10;;;;;;;17.85;55.12;100539.63;10417180;28;20098;-59
2023/10/20 12:36:35;;;;;;;12.25;3.13;;;;;;;17.81;55.15;100536.53;10432297;28;20042;-59
2023/10/20 12:41:36;;;;;;;8.85;3.13;;;;;;;17.58;55.71;100512.78;10416139;28;20045;-61
2023/10/20 12:46:37;;;;;;;9.23;3.40;;;;;;;17.60;55.65;100528.72;10415561;28;20041;-60
2023/10/20 12:51:40;;;;;;;6.50;2.47;;;;;;;17.55;55.95;100526.63;10415887;28;20045;-61
2023/10/20 12:56:41;;;;;;;7.65;2.60;;;;;;;17.48;56.88;100529.34;10442746;28;20044;-59
2023/10/20 13:01:42;;;;;;;14.38;2.50;;;;;;;17.11;56.15;100487.84;10439084;28;20044;-59
2023/10/20 13:06:42;;;;;;;16.63;3.25;;;;;;;17.25;57.09;100532.44;10456037;28;20041;-59
2023/10/20 13:11:43;;;;;;;6.07;2.08;;;;;;;17.15;57.85;100539.28;10457063;28;20068;-60
2023/10/20 13:16:44;;;;;;;12.45;2.25;;;;;;;17.04;58.01;100535.34;10456902;28;20041;-60
2023/10/20 13:21:44;;;;;;;6.88;1.88;;;;;;;16.89;57.98;100530.97;10455490;28;20500;-60
2023/10/20 13:26:45;;;;;;;6.45;2.22;;;;;;;16.77;58.77;100532.63;10456279;28;20072;-60
2023/10/20 13:31:46;;;;;;;17.63;6.78;;;;;;;16.46;58.80;100508.19;10456163;28;20033;-61
2023/10/20 13:36:47;;;;;;;12.20;3.70;;;;;;;16.10;59.43;100472.63;10455125;28;20059;-60
2023/10/20 13:41:47;;;;;;;13.45;2.53;;;;;;;16.24;60.16;100524.41;10454897;28;20041;-60
2023/10/20 13:46:49;;;;;;;26.40;2.80;;;;;;;15.98;60.78;100506.38;10455570;28;20072;-60
2023/10/20 13:51:50;;;;;;;7.60;2.25;;;;;;;15.88;61.89;100528.16;10454798;28;20083;-61
2023/10/20 13:56:51;;;;;;;39.67;3.03;;;;;;;15.59;62.31;100510.47;10426895;28;20127;-61
2023/10/20 14:01:51;;;;;;;6.63;2.05;;;;;;;15.29;63.15;100491.13;10420227;28;20055;-60
2023/10/20 14:06:52;;;;;;;20.08;2.58;;;;;;;15.26;63.77;100526.31;10444927;28;20072;-60
2023/10/20 14:11:53;;;;;;;18.75;2.80;;;;;;;15.03;64.61;100522.00;10412716;28;20519;-60
2023/10/20 14:16:54;;;;;;;7.95;1.90;;;;;;;14.81;65.12;100515.00;10429122;28;20033;-60
2023/10/20 14:21:54;;;;;;;13.38;2.35;;;;;;;14.25;65.79;100464.03;10412511;28;20524;-60
2023/10/20 14:26:58;;;;;;;13.48;2.65;;;;;;;14.02;66.61;100465.00;10412540;28;20042;-60
2023/10/20 14:32:00;;;;;;;13.52;2.90;;;;;;;14.10;67.50;100518.31;10416392;28;20069;-61
2023/10/20 14:43:42;;;;;;;26.63;3.03;;;;;;;13.00;69.91;100452.28;10367065;28;20463;-76
2023/10/20 14:48:43;;;;;;;35.10;6.07;;;;;;;12.95;71.00;100502.66;10379790;28;20496;-76
2023/10/20 14:53:44;;;;;;;67.85;18.38;;;;;;;12.85;72.35;100539.41;10378654;28;20034;-76
2023/10/20 14:58:45;;;;;;;64.63;18.40;;;;;;;12.59;73.50;100550.41;10379215;28;20136;-76
2023/10/20 15:03:47;;;;;;;42.75;9.98;;;;;;;12.08;74.00;100507.38;10379974;28;20100;-76
2023/10/20 15:08:48;;;;;;;70.20;11.98;;;;;;;12.06;74.93;100552.84;10379615;28;20038;-76
2023/10/20 15:13:49;;;;;;;43.97;7.97;;;;;;;11.76;76.35;100546.41;10379173;28;20057;-76
2023/10/20 15:18:50;;;;;;;42.55;18.25;;;;;;;11.60;77.01;100546.44;10379001;28;20041;-75
2023/10/20 15:23:51;;;;;;;44.33;17.42;;;;;;;11.01;77.22;100485.53;10377355;28;20041;-75
2023/10/20 15:28:52;;;;;;;62.92;26.58;;;;;;;11.29;77.82;100552.47;10377887;28;20072;-75
2023/10/20 15:33:53;;;;;;;29.17;15.15;;;;;;;10.87;78.53;100526.91;10378463;28;20038;-75
2023/10/20 15:38:54;;;;;;;69.95;14.65;;;;;;;10.89;78.55;100555.97;10377117;28;20029;-76
2023/10/20 15:43:55;;;;;;;47.55;15.90;;;;;;;10.37;79.34;100498.59;10401037;28;20508;-75
2023/10/20 15:48:56;;;;;;;34.08;14.18;;;;;;;10.57;79.76;100538.16;10418624;28;20115;-76
2023/10/20 15:53:57;;;;;;;32.85;14.68;;;;;;;10.63;80.65;100561.41;10401058;28;20067;-76
2023/10/20 15:58:58;;;;;;;48.20;13.95;;;;;;;10.29;81.66;100543.75;10418121;28;20508;-76
2023/10/20 16:03:59;;;;;;;29.45;14.32;;;;;;;10.38;81.57;100561.38;10387922;28;20042;-76
2023/10/20 16:09:05;;;;;;;29.20;14.15;;;;;;;10.12;82.13;100534.03;10390462;28;20045;-76
2023/10/20 16:14:08;;;;;;;32.15;14.05;;;;;;;9.94;82.97;100540.25;10386604;28;20225;-81
2023/10/20 16:19:10;;;;;;;44.63;16.02;;;;;;;9.59;83.14;100488.16;10379288;28;20200;-74
2023/10/20 16:24:13;;;;;;;44.30;21.67;;;;;;;8.96;83.50;100419.56;10396644;28;20044;-73
2023/10/20 16:29:14;;;;;;;45.67;24.77;;;;;;;9.26;84.01;100497.75;10405584;28;20085;-79
2023/10/20 16:34:15;;;;;;;61.33;22.95;;;;;;;9.24;85.21;100526.22;10377203;28;20072;-77
2023/10/20 16:39:16;;;;;;;69.25;25.05;;;;;;;9.31;85.11;100544.03;10416745;28;20515;-78
2023/10/20 16:44:17;;;;;;;36.08;19.25;;;;;;;9.06;85.69;100539.50;10416317;28;20103;-79
2023/10/20 16:49:18;;;;;;;49.90;20.50;;;;;;;8.57;86.17;100473.72;10388683;28;20073;-76
2023/10/20 16:54:19;;;;;;;44.75;19.20;;;;;;;9.07;86.02;100557.94;10378501;28;20481;-77
2023/10/20 16:59:24;;;;;;;48.28;20.65;;;;;;;8.73;85.96;100522.50;10416173;28;20492;-76
2023/10/20 17:04:25;;;;;;;51.58;21.25;;;;;;;8.85;86.19;100574.28;10355287;28;20062;-79
2023/10/20 17:09:30;;;;;;;35.03;18.20;;;;;;;8.79;87.11;100564.28;10334099;28;20486;-78
2023/10/20 17:14:32;;;;;;;;;;;;;;;8.90;89.66;100566.72;10342991;28;20037;-79
2023/10/20 17:19:43;;;;;;;35.47;16.70;;;;;;;8.64;89.21;100561.31;10339185;28;19917;-81
2023/10/20 17:24:44;;;;;;;43.85;16.60;;;;;;;8.41;87.24;100547.69;10340484;28;20077;-78
2023/10/20 17:29:48;;;;;;;41.03;16.92;;;;;;;7.76;87.22;100466.53;10338667;28;20088;-75
2023/10/20 17:34:49;;;;;;;28.75;13.80;;;;;;;8.19;86.88;100551.53;10346608;28;20038;-77
2023/10/20 17:39:52;;;;;;;31.33;12.13;;;;;;;8.01;87.74;100528.50;10343688;28;20100;-78
2023/10/20 17:44:53;;;;;;;16.65;6.60;;;;;;;8.15;88.36;100543.06;10332868;28;20046;-83
2023/10/20 17:49:54;;;;;;;8.65;4.30;;;;;;;8.15;88.73;100463.66;10344795;28;20140;-78
2023/10/20 17:54:55;;;;;;;6.80;2.90;;;;;;;8.66;88.93;100459.56;10333834;28;20132;-79
2023/10/20 17:59:55;;;;;;;4.20;2.13;;;;;;;9.32;89.19;100503.25;10333371;28;20046;-83
2023/10/20 18:04:56;;;;;;;14.43;2.15;;;;;;;9.65;89.64;100534.47;10350042;28;20087;-80
2023/10/20 18:09:57;;;;;;;4.10;1.80;;;;;;;9.60;89.56;100511.03;10347152;28;20433;-80
2023/10/20 18:14:58;;;;;;;6.78;1.67;;;;;;;9.46;89.73;100483.31;10343111;28;20093;-78
2023/10/20 18:19:59;;;;;;;5.05;1.40;;;;;;;9.94;90.44;100550.03;10330643;28;20070;-81
2023/10/20 18:25:00;;;;;;;7.28;1.98;;;;;;;9.85;90.52;100546.50;10337336;28;20034;-80
2023/10/20 18:30:00;;;;;;;10.73;1.35;;;;;;;9.43;90.88;100445.69;10362121;28;20042;-80
2023/10/20 18:35:01;;;;;;;7.38;1.40;;;;;;;10.11;91.31;100554.44;10352135;28;20401;-79
2023/10/20 18:40:02;;;;;;;3.53;1.30;;;;;;;10.07;91.64;100559.19;10348959;28;20101;-78
2023/10/20 18:45:04;;;;;;;2.95;1.23;;;;;;;9.29;92.06;100450.56;10351277;28;20046;-78
2023/10/20 18:50:05;;;;;;;2.95;1.17;;;;;;;9.26;92.31;100458.81;10350077;28;20042;-80
2023/10/20 18:55:06;;;;;;;4.40;1.17;;;;;;;8.88;92.68;100402.63;10350602;28;20084;-80
2023/10/20 19:00:08;;;;;;;4.88;1.20;;;;;;;9.83;93.10;100562.56;10353234;28;20046;-78
2023/10/20 19:05:13;;;;;;;5.68;1.42;;;;;;;9.86;92.82;100564.09;10344063;28;20436;-83
2023/10/20 19:10:14;;;;;;;8.70;1.67;;;;;;;9.83;93.30;100564.41;10346685;28;20042;-81
2023/10/20 19:15:16;;;;;;;5.75;1.35;;;;;;;9.50;93.62;100508.50;10331355;28;20520;-79
2023/10/20 19:20:18;;;;;;;6.18;1.50;;;;;;;9.56;94.30;100518.50;10340368;28;20176;-80
2023/10/20 19:25:19;;;;;;;10.52;1.80;;;;;;;9.67;94.63;100545.75;10376717;28;20057;-80
2023/10/20 19:30:20;;;;;;;5.72;1.42;;;;;;;9.19;94.98;100472.88;10362347;28;20452;-80
2023/10/20 19:35:21;;;;;;;8.93;1.45;;;;;;;8.88;94.96;100430.91;10379052;28;20048;-78
2023/10/20 19:40:22;;;;;;;7.78;1.67;;;;;;;8.97;95.62;100469.72;10348012;28;20075;-78
2023/10/20 19:45:24;;;;;;;8.93;2.10;;;;;;;8.83;96.46;100459.69;10337970;28;20062;-80
2023/10/20 19:50:24;;;;;;;3.38;1.52;;;;;;;8.81;96.66;100474.91;10336928;28;20069;-79
2023/10/20 19:55:25;;;;;;;11.48;1.70;;;;;;;9.02;97.55;100515.13;10337103;28;20066;-79
2023/10/20 20:00:26;;;;;;;6.90;1.95;;;;;;;9.04;98.86;100515.00;10337106;28;20049;-79
2023/10/20 20:05:27;;;;;;;6.03;2.55;;;;;;;8.65;99.35;100449.97;10336654;28;20045;-79
2023/10/20 20:10:29;;;;;;;6.40;2.17;;;;;;;8.97;100.00;100498.03;10335527;28;20509;-79
2023/10/20 20:15:29;;;;;;;8.48;2.17;;;;;;;8.35;100.00;100403.50;10337063;28;20042;-79
2023/10/20 20:20:30;;;;;;;7.50;2.00;;;;;;;8.97;100.00;100506.81;10336278;28;20042;-80
2023/10/20 20:25:31;;;;;;;22.23;2.22;;;;;;;8.79;100.00;100521.91;10334761;28;20477;-80
2023/10/20 20:30:32;;;;;;;3.60;1.55;;;;;;;8.48;99.57;100489.69;10334164;28;20080;-81
2023/10/20 20:35:34;;;;;;;11.35;1.75;;;;;;;8.52;99.79;100528.91;10334963;28;20125;-79
2023/10/20 20:40:36;;;;;;;4.90;1.90;;;;;;;8.42;100.00;100528.16;10334761;28;20070;-87
2023/10/20 20:45:36;;;;;;;8.93;2.03;;;;;;;7.85;100.00;100466.66;10336401;28;20112;-87
2023/10/20 20:50:42;;;;;;;7.03;2.28;;;;;;;8.20;100.00;100518.81;10336585;28;20081;-90
2023/10/20 20:55:45;;;;;;;3.65;1.60;;;;;;;8.18;100.00;100518.94;10336957;28;20034;-87
2023/10/20 21:00:46;;;;;;;4.53;2.10;;;;;;;7.91;100.00;100488.03;10335921;28;20133;-86
2023/10/20 21:05:57;;;;;;;5.93;2.83;;;;;;;7.75;100.00;100477.28;10334073;28;20476;-89
2023/10/20 21:11:24;;;;;;;7.57;3.15;;;;;;;7.87;100.00;100520.25;10334659;28;20042;-88
2023/10/20 21:16:25;;;;;;;7.25;3.15;;;;;;;7.67;100.00;100535.34;10332564;28;20054;-86
2023/10/20 21:21:26;;;;;;;7.07;2.92;;;;;;;7.48;100.00;100528.31;10334037;28;20054;-86
2023/10/20 21:26:27;;;;;;;8.73;2.95;;;;;;;7.02;100.00;100488.47;10335271;28;20543;-87
2023/10/20 21:31:27;;;;;;;7.53;2.75;;;;;;;6.78;100.00;100454.59;10334066;28;20379;-85
2023/10/20 21:36:28;;;;;;;9.93;2.75;;;;;;;7.14;100.00;100514.72;10332973;28;20132;-84
2023/10/20 21:41:29;;;;;;;9.00;2.85;;;;;;;7.01;99.64;100507.13;10331814;28;20054;-88
2023/10/20 21:46:31;;;;;;;7.32;2.88;;;;;;;6.66;99.36;100454.88;10333490;28;20081;-88
2023/10/20 21:51:32;;;;;;;10.32;2.97;;;;;;;6.86;99.75;100490.88;10332286;28;20039;-84
2023/10/20 21:56:33;;;;;;;8.65;2.65;;;;;;;6.60;100.00;100430.72;10332713;28;20038;-85
2023/10/20 22:01:34;;;;;;;6.22;2.85;;;;;;;6.59;100.00;100459.91;10332374;28;20042;-88
2023/10/20 22:06:35;;;;;;;15.07;3.30;;;;;;;7.00;100.00;100521.28;10332880;28;20120;-88
2023/10/20 22:11:36;;;;;;;7.72;2.80;;;;;;;6.40;100.00;100436.94;10333141;28;20038;-91
2023/10/20 22:16:36;;;;;;;13.45;2.55;;;;;;;6.21;100.00;100432.50;10333809;28;20070;-89
2023/10/20 22:21:37;;;;;;;18.67;3.72;;;;;;;6.43;100.00;100489.44;10332752;28;20070;-89
2023/10/20 22:26:40;;;;;;;10.88;2.50;;;;;;;6.58;100.00;100516.28;10331703;28;20049;-89
2023/10/20 22:31:42;;;;;;;10.43;2.60;;;;;;;6.43;100.00;100502.66;10331721;28;20043;-88
2023/10/20 22:36:42;;;;;;;6.07;2.45;;;;;;;6.17;100.00;100486.53;10331773;28;20084;-86
2023/10/20 22:41:44;;;;;;;7.32;2.20;;;;;;;5.98;100.00;100482.03;10331727;28;20145;-86
2023/10/20 22:46:44;;;;;;;5.88;2.42;;;;;;;5.98;99.70;100497.00;10330865;28;20038;-86
2023/10/20 22:51:45;;;;;;;7.47;2.90;;;;;;;5.28;99.57;100396.75;10333559;28;20433;-86
2023/10/20 22:56:46;;;;;;;4.10;2.33;;;;;;;5.88;100.00;100487.25;10338859;28;20125;-85
2023/10/20 23:01:47;;;;;;;7.13;2.60;;;;;;;5.90;100.00;100476.56;10339761;28;20046;-86
2023/10/20 23:06:49;;;;;;;5.30;2.55;;;;;;;5.64;100.00;100383.97;10339475;28;20149;-84
2023/10/20 23:11:51;;;;;;;11.30;3.25;;;;;;;6.20;100.00;100443.22;10340186;28;20140;-91
2023/10/20 23:16:52;;;;;;;30.67;4.70;;;;;;;6.26;100.00;100417.13;10339348;28;20038;-83
2023/10/20 23:21:53;;;;;;;25.38;5.18;;;;;;;6.66;100.00;100449.59;10337830;28;20502;-83
2023/10/20 23:26:54;;;;;;;20.00;5.38;;;;;;;6.31;100.00;100362.13;10338237;28;20044;-83
2023/10/20 23:31:55;;;;;;;56.05;6.50;;;;;;;6.54;100.00;100359.19;10337656;28;20100;-82
2023/10/20 23:37:00;;;;;;;163.40;8.10;;;;;;;6.93;100.00;100404.81;10338522;28;20084;-84
2023/10/20 23:42:01;;;;;;;60.92;6.10;;;;;;;7.51;100.00;100451.38;10337619;28;20181;-84